Time;durP1;ratioP1;P1;durP2;ratioP2;P2;SDS_P1;SDS_P2;PMS_P1;PMS_P2;Temp;Humidity;BMP_temperature;BMP_pressure;BME280_temperature;BME280_humidity;BME280_pressure;Samples;Min_cycle;Max_cycle;Signal;HPM_P1;HPM_P2
2022/02/19 08:48:21;2440756.00;8.14;4572.12;165000.00;0.55;285.65;;;;;11.50;1.00;;;;;;2273449;60;1342032;-87
2022/02/19 08:50:51;1421377.00;4.74;2496.03;158276.00;0.53;274.07;;;;;11.40;1.00;;;;;;2287818;60;1123;-87
2022/02/19 08:53:24;1876089.00;6.25;3372.92;115299.00;0.38;199.97;;;;;11.60;1.00;;;;;;2287724;60;2236;-88
2022/02/19 08:55:51;1696862.00;5.66;3019.33;158642.00;0.53;274.70;;;;;11.60;1.00;;;;;;2287832;60;1044;-87
2022/02/19 08:58:18;2827226.00;9.42;5484.34;151634.00;0.51;262.62;;;;;11.80;1.00;;;;;;2287710;60;1416;-87
2022/02/19 09:00:46;904091.00;3.01;1563.31;230460.00;0.77;398.34;;;;;11.90;1.00;;;;;;2287724;60;2188;-87
2022/02/19 09:03:13;120180640.00;400.60;70316888.00;222271.00;0.74;384.25;;;;;11.90;1.00;;;;;;2287690;60;1061;-87
2022/02/19 09:05:44;857173.00;2.86;1481.02;121274.00;0.40;210.28;;;;;12.00;1.00;;;;;;2287789;60;1066;-87
2022/02/19 09:08:11;1629537.00;5.43;2889.32;250573.00;0.84;432.94;;;;;12.00;1.00;;;;;;2287738;60;1985;-86
2022/02/19 09:10:38;642132.00;2.14;1107.03;93888.00;0.31;163.02;;;;;12.00;1.00;;;;;;2287560;60;1087;-87
2022/02/19 09:13:05;472544.00;1.58;814.57;84592.00;0.28;146.97;;;;;12.10;1.00;;;;;;2287522;60;1003;-88
2022/02/19 09:15:32;711055.00;2.37;1226.41;108993.00;0.36;189.09;;;;;12.10;1.00;;;;;;2287641;60;943;-88
2022/02/19 09:18:02;577938.00;1.93;996.14;113865.00;0.38;197.50;;;;;12.10;1.00;;;;;;2287557;60;1280;-87
2022/02/19 09:20:29;584913.00;1.95;1008.18;81623.00;0.27;141.84;;;;;11.80;1.00;;;;;;2287712;60;923;-88
2022/02/19 09:22:57;575275.00;1.92;991.55;81974.00;0.27;142.45;;;;;11.90;1.00;;;;;;2287663;60;1136;-88
2022/02/19 09:25:24;644117.00;2.15;1110.46;83085.00;0.28;144.37;;;;;12.00;1.00;;;;;;2287755;60;1010;-87
2022/02/19 09:27:51;452103.00;1.51;779.40;84785.00;0.28;147.30;;;;;12.00;1.00;;;;;;2287648;60;1914;-86
2022/02/19 09:30:19;630332.00;2.10;1086.62;100582.00;0.34;174.58;;;;;11.70;1.00;;;;;;2287638;60;1092;-87
2022/02/19 09:32:46;677139.00;2.26;1167.62;89926.00;0.30;156.18;;;;;11.20;1.00;;;;;;2287482;60;1101;-87
2022/02/19 09:35:14;494386.00;1.65;852.16;94477.00;0.31;164.04;;;;;11.50;1.00;;;;;;2287613;60;1158;-87
2022/02/19 09:37:41;570227.00;1.90;982.84;87133.00;0.29;151.36;;;;;11.70;1.00;;;;;;2287666;60;1114;-86
2022/02/19 09:40:11;694432.00;2.31;1197.58;88202.00;0.29;153.20;;;;;11.50;1.00;;;;;;2287556;60;2117;-87
2022/02/19 09:42:39;625580.00;2.09;1078.41;88310.00;0.29;153.39;;;;;11.50;1.00;;;;;;2287587;60;1203;-87
2022/02/19 09:45:07;669395.00;2.23;1154.21;118249.00;0.39;205.06;;;;;11.70;1.00;;;;;;2287541;60;1002;-87
2022/02/19 09:47:36;394792.00;1.32;680.85;86434.00;0.29;150.15;;;;;11.30;1.00;;;;;;2287479;60;1933;-89
2022/02/19 09:50:05;710844.00;2.37;1226.05;188649.00;0.63;326.38;;;;;11.40;1.00;;;;;;2287513;60;1188;-88
2022/02/19 09:52:32;893594.00;2.98;1544.87;202150.00;0.67;349.62;;;;;11.60;1.00;;;;;;2287458;60;2268;-88
2022/02/19 09:55:00;619062.00;2.06;1067.15;97965.00;0.33;170.06;;;;;11.90;1.00;;;;;;2287487;60;930;-88
2022/02/19 09:57:29;492036.00;1.64;848.11;102333.00;0.34;177.60;;;;;12.00;1.00;;;;;;2287406;60;1058;-89
2022/02/19 09:59:56;669919.00;2.23;1155.11;54447.00;0.18;94.88;;;;;11.90;1.00;;;;;;2284674;60;1391;-88
2022/02/19 10:02:38;117917312.00;393.06;66415032.00;71442.00;0.24;124.25;;;;;12.30;1.00;;;;;;2284822;60;2309;-88
2022/02/19 10:05:16;506520.00;1.69;873.05;0.00;0.00;0.62;;;;;12.20;1.00;;;;;;2284807;60;1441;-88
2022/02/19 10:07:46;397740.00;1.33;685.92;24539.00;0.08;43.13;;;;;12.40;1.00;;;;;;2284742;60;1911;-88
2022/02/19 10:10:26;268428.00;0.89;463.64;0.00;0.00;0.62;;;;;12.60;1.00;;;;;;2284770;60;970;-88
2022/02/19 10:15:47;539473.00;1.80;929.81;60575.00;0.20;105.47;;;;;12.10;1.00;;;;;;2284646;60;1590;-88
2022/02/19 10:18:24;389087.00;1.30;671.05;0.00;0.00;0.62;;;;;12.20;1.00;;;;;;2284715;60;1436;-87
2022/02/19 10:20:52;230214.00;0.77;397.92;0.00;0.00;0.62;;;;;11.90;1.00;;;;;;2284777;60;979;-88
2022/02/19 10:23:19;281878.00;0.94;486.77;33509.00;0.11;58.66;;;;;11.90;1.00;;;;;;2284811;60;1142;-88
2022/02/19 10:26:00;136655.00;0.46;236.80;0.00;0.00;0.62;;;;;12.10;1.00;;;;;;2284773;60;1055;-87
2022/02/19 10:28:28;224185.00;0.75;387.54;0.00;0.00;0.62;;;;;12.20;1.00;;;;;;2284687;60;2014;-87
2022/02/19 10:30:55;209868.00;0.70;362.91;0.00;0.00;0.62;;;;;12.50;1.00;;;;;;2284746;60;1042;-88
2022/02/19 10:33:27;206419.00;0.69;356.97;0.00;0.00;0.62;;;;;13.00;1.00;;;;;;2284765;60;1135;-88
2022/02/19 10:35:54;272442.00;0.91;470.54;0.00;0.00;0.62;;;;;12.80;1.00;;;;;;2284676;60;1988;-88
2022/02/19 10:38:21;379783.00;1.27;655.05;0.00;0.00;0.62;;;;;12.30;1.00;;;;;;2284601;60;1273;-88
2022/02/19 10:40:52;307616.00;1.03;531.01;0.00;0.00;0.62;;;;;12.30;1.00;;;;;;2284811;60;981;-88
2022/02/19 10:43:29;310544.00;1.04;536.04;0.00;0.00;0.62;;;;;12.50;1.00;;;;;;2284679;60;1416;-87
2022/02/19 10:46:06;261468.00;0.87;451.67;0.00;0.00;0.62;;;;;12.50;1.00;;;;;;2284705;60;1235;-89
2022/02/19 10:48:34;292105.00;0.97;504.35;0.00;0.00;0.62;;;;;12.00;1.00;;;;;;2284488;60;1944;-88
2022/02/19 10:51:14;362681.00;1.21;625.66;0.00;0.00;0.62;;;;;12.10;1.00;;;;;;2284615;60;1125;-88
2022/02/19 10:53:48;430382.00;1.43;742.04;86450.00;0.29;150.18;;;;;12.40;1.00;;;;;;2284552;60;1455;-88
2022/02/19 10:56:25;318593.00;1.06;549.88;0.00;0.00;0.62;;;;;12.60;1.00;;;;;;2284669;60;1109;-88
2022/02/19 10:58:59;184034.00;0.61;318.44;0.00;0.00;0.62;;;;;12.60;1.00;;;;;;2284614;60;1308;-87
2022/02/19 11:01:28;331413.00;1.10;571.91;0.00;0.00;0.62;;;;;13.00;1.00;;;;;;2284581;60;975;-88
2022/02/19 11:03:56;176082.00;0.59;304.74;0.00;0.00;0.62;;;;;13.10;1.00;;;;;;2284624;60;1020;-88
2022/02/19 11:06:24;449611.00;1.50;775.11;8238.00;0.03;14.90;;;;;13.30;1.00;;;;;;2284624;60;958;-89
2022/02/19 11:08:51;136511.00;0.46;236.56;0.00;0.00;0.62;;;;;13.40;1.00;;;;;;2284596;60;2013;-88
2022/02/19 11:11:21;1122919.00;3.74;1951.46;219558.00;0.73;379.58;;;;;13.70;1.00;;;;;;2284387;60;957;-88
2022/02/19 11:13:52;398527.00;1.33;687.27;0.00;0.00;0.62;;;;;13.30;1.00;;;;;;2284593;60;1612;-89
2022/02/19 11:16:23;286337.00;0.95;494.43;0.00;0.00;0.62;;;;;13.10;1.00;;;;;;2284525;60;2011;-88
2022/02/19 11:18:53;514483.00;1.71;886.76;3897.00;0.01;7.37;;;;;12.50;1.00;;;;;;2284507;60;1280;-88
2022/02/19 11:21:22;231324.00;0.77;399.83;0.00;0.00;0.62;;;;;12.20;1.00;;;;;;2284509;60;2264;-89
2022/02/19 11:23:49;597755.00;1.99;1030.34;221.00;0.00;1.00;;;;;12.30;1.00;;;;;;2284557;60;1172;-88
2022/02/19 11:26:19;1743803.00;5.81;3110.85;96325.00;0.32;167.23;;;;;11.90;1.00;;;;;;2284471;60;1362;-88
2022/02/19 11:29:02;1795530.00;5.99;3212.58;287034.00;0.96;495.63;;;;;11.60;1.00;;;;;;2284542;60;2037;-88
2022/02/19 11:31:32;1678502.00;5.60;2983.73;294458.00;0.98;508.39;;;;;11.80;1.00;;;;;;2284504;60;1094;-88
2022/02/19 11:34:11;1568284.00;5.23;2772.28;106758.00;0.36;185.24;;;;;11.60;1.00;;;;;;2284440;60;967;-88
2022/02/19 11:36:43;335574.00;1.12;579.07;0.00;0.00;0.62;;;;;11.60;1.00;;;;;;2284481;60;1067;-88
2022/02/19 11:39:12;310129.00;1.03;535.33;0.00;0.00;0.62;;;;;11.70;1.00;;;;;;2284032;60;1384;-88
2022/02/19 11:41:45;500308.00;1.67;862.35;9963.00;0.03;17.89;;;;;11.60;1.00;;;;;;2284480;60;1484;-87
2022/02/19 11:44:31;313480.00;1.04;541.09;0.00;0.00;0.62;;;;;11.80;1.00;;;;;;2284400;60;1448;-88
2022/02/19 11:46:58;1021442.00;3.40;1770.49;93016.00;0.31;161.52;;;;;11.60;1.00;;;;;;2284438;60;1988;-88
2022/02/19 11:49:29;1301350.00;4.34;2274.58;114751.00;0.38;199.03;;;;;11.90;1.00;;;;;;2284529;60;1392;-88
2022/02/19 11:52:20;1027665.00;3.43;1781.53;128779.00;0.43;223.22;;;;;11.70;1.00;;;;;;2284442;60;1021;-88
2022/02/19 11:54:58;669235.00;2.23;1153.93;84052.00;0.28;146.04;;;;;12.10;1.00;;;;;;2284341;60;1397;-88
2022/02/19 11:57:30;397097.00;1.32;684.81;0.00;0.00;0.62;;;;;12.40;1.00;;;;;;2284349;60;1442;-87
2022/02/19 11:59:58;533375.00;1.78;919.31;87231.00;0.29;151.53;;;;;12.40;1.00;;;;;;2284372;60;1305;-88
2022/02/19 12:02:27;471732.00;1.57;813.17;0.00;0.00;0.62;;;;;12.70;1.00;;;;;;2284281;60;1445;-87
2022/02/19 12:05:26;499678.00;1.67;861.27;0.00;0.00;0.62;;;;;13.10;1.00;;;;;;2284327;60;1575;-88
2022/02/19 12:07:57;360190.00;1.20;621.38;88332.00;0.29;153.43;;;;;13.70;1.00;;;;;;2284323;60;2012;-89
2022/02/19 12:10:24;420112.00;1.40;724.38;82117.00;0.27;142.69;;;;;13.60;1.00;;;;;;2284485;60;994;-87
2022/02/19 12:13:08;431633.00;1.44;744.19;0.00;0.00;0.62;;;;;13.40;1.00;;;;;;2284327;60;1347;-88
2022/02/19 12:15:38;267001.00;0.89;461.19;0.00;0.00;0.62;;;;;13.70;1.00;;;;;;2284371;60;1349;-89
2022/02/19 12:18:09;293914.00;0.98;507.46;4707.00;0.02;8.78;;;;;13.80;1.00;;;;;;2284432;60;1404;-87
2022/02/19 12:20:39;250388.00;0.83;432.62;0.00;0.00;0.62;;;;;13.80;1.00;;;;;;2284372;60;1571;-87
2022/02/19 12:23:10;378283.00;1.26;652.47;0.00;0.00;0.62;;;;;13.60;1.00;;;;;;2284316;60;1069;-89
2022/02/19 12:26:07;215129.00;0.72;371.96;0.00;0.00;0.62;;;;;13.70;1.00;;;;;;2284484;60;1036;-87
2022/02/19 12:28:36;191010.00;0.64;330.45;0.00;0.00;0.62;;;;;13.60;1.00;;;;;;2284271;60;1982;-88
2022/02/19 12:31:24;436712.00;1.46;752.93;33306.00;0.11;58.31;;;;;13.70;1.00;;;;;;2284416;60;1013;-88
2022/02/19 12:33:53;398246.00;1.33;686.79;0.00;0.00;0.62;;;;;13.50;1.00;;;;;;2284399;60;1231;-90
2022/02/19 12:36:32;492514.00;1.64;848.94;0.00;0.00;0.62;;;;;13.40;1.00;;;;;;2277518;61;1441;-87
2022/02/19 12:39:01;503668.00;1.68;868.14;0.00;0.00;0.62;;;;;13.50;1.00;;;;;;2276052;61;1408;-88
2022/02/19 12:41:36;565854.00;1.89;975.30;41401.00;0.14;72.31;;;;;13.80;1.00;;;;;;2276007;61;1539;-87
2022/02/19 12:44:29;939625.00;3.13;1625.82;65279.00;0.22;113.60;;;;;13.80;1.00;;;;;;2276151;60;1803;-88
2022/02/19 12:46:56;312693.00;1.04;539.74;0.00;0.00;0.62;;;;;13.80;1.00;;;;;;2276131;61;1181;-88
2022/02/19 12:49:27;324006.00;1.08;559.18;0.00;0.00;0.62;;;;;13.90;1.00;;;;;;2276148;61;1932;-88
2022/02/19 12:52:06;467882.00;1.56;806.55;0.00;0.00;0.62;;;;;13.70;1.00;;;;;;2276178;61;1438;-88
2022/02/19 12:54:39;278975.00;0.93;481.78;0.00;0.00;0.62;;;;;13.30;1.00;;;;;;2276136;61;1090;-88
2022/02/19 12:57:13;504753.00;1.68;870.01;62894.00;0.21;109.48;;;;;13.50;1.00;;;;;;2276054;61;1602;-87
2022/02/19 12:59:57;498450.00;1.66;859.16;11888.00;0.04;21.22;;;;;13.20;1.00;;;;;;2276140;61;1566;-87
2022/02/19 13:02:33;432518.00;1.44;745.72;0.00;0.00;0.62;;;;;13.70;1.00;;;;;;2276074;61;1473;-88
2022/02/19 13:05:03;686582.00;2.29;1183.98;50230.00;0.17;87.58;;;;;13.80;1.00;;;;;;2276194;61;953;-88
2022/02/19 13:07:36;510731.00;1.70;880.30;812.00;0.00;2.03;;;;;13.80;1.00;;;;;;2276017;61;2013;-88
2022/02/19 13:10:18;525448.00;1.75;905.65;0.00;0.00;0.62;;;;;13.60;1.00;;;;;;2276021;61;1494;-87
2022/02/19 13:15:45;225287.00;0.75;389.44;0.00;0.00;0.62;;;;;13.20;1.00;;;;;;2275524;61;1563;-88
2022/02/19 13:18:27;540401.00;1.80;931.41;75254.00;0.25;130.84;;;;;13.50;1.00;;;;;;2276014;61;1542;-88
2022/02/19 13:21:15;701770.00;2.34;1210.31;78066.00;0.26;135.70;;;;;13.00;1.00;;;;;;2276042;61;1490;-87
2022/02/19 13:29:36;1474677.00;4.92;2595.56;64258.00;0.21;111.84;;;;;13.10;1.00;;;;;;1710264;55;2506;-86
2022/02/19 13:32:07;590386.00;1.97;1017.62;55611.00;0.19;96.89;;;;;12.60;1.00;;;;;;2263907;61;1114;-86
2022/02/19 13:37:53;1285466.00;4.28;2245.53;94076.00;0.31;163.35;;;;;12.70;1.00;;;;;;2264636;61;1434;-85
2022/02/19 13:40:45;847307.00;2.82;1463.76;14210.00;0.05;25.24;;;;;12.70;1.00;;;;;;2260599;61;1367;-86
2022/02/19 13:46:16;211072.00;0.70;364.98;0.00;0.00;0.62;;;;;12.70;1.00;;;;;;2260967;61;1620;-87
2022/02/19 13:49:01;390732.00;1.30;673.87;0.00;0.00;0.62;;;;;12.20;1.00;;;;;;2260525;61;2002;-86
2022/02/19 13:51:52;452883.00;1.51;780.74;0.00;0.00;0.62;;;;;12.10;1.00;;;;;;2260483;61;1601;-86
2022/02/19 13:54:43;598315.00;1.99;1031.31;0.00;0.00;0.62;;;;;11.90;1.00;;;;;;2260512;61;1444;-87
2022/02/19 13:57:42;578122.00;1.93;996.46;88684.00;0.30;154.04;;;;;11.80;1.00;;;;;;2260507;61;1491;-86
2022/02/19 14:06:17;1865255.00;6.22;3351.22;186737.00;0.62;323.09;;;;;11.40;1.00;;;;;;2251819;61;1522;-86
2022/02/19 14:09:15;1811365.00;6.04;3243.92;220958.00;0.74;381.99;;;;;11.50;1.00;;;;;;2251884;61;1918;-87
2022/02/19 14:12:33;1162515.00;3.88;2022.59;134315.00;0.45;232.77;;;;;11.70;1.00;;;;;;2252042;61;1587;-87
2022/02/19 14:20:59;398349.00;1.33;686.97;0.00;0.00;0.62;;;;;11.20;1.00;;;;;;2251961;61;1516;-87
2022/02/19 14:23:39;480275.00;1.60;827.87;0.00;0.00;0.62;;;;;11.40;1.00;;;;;;2252013;61;1523;-86
2022/02/19 14:26:21;584407.00;1.95;1007.30;25134.00;0.08;44.16;;;;;11.50;1.00;;;;;;2252011;61;1551;-87
2022/02/19 14:29:08;557400.00;1.86;960.72;18462.00;0.06;32.61;;;;;11.80;1.00;;;;;;2251856;61;1912;-86
2022/02/19 14:37:31;2497299.00;8.32;4700.47;230998.00;0.77;399.27;;;;;11.80;1.00;;;;;;2257635;61;1478;-88
2022/02/19 14:40:07;1947256.00;6.49;3516.58;221748.00;0.74;383.35;;;;;11.70;1.00;;;;;;2260293;61;1375;-87
2022/02/19 14:43:01;1706263.00;5.69;3037.60;149108.00;0.50;258.27;;;;;11.70;1.00;;;;;;2260378;61;1401;-88
2022/02/19 14:49:03;447755.00;1.49;771.92;0.00;0.00;0.62;;;;;12.20;1.00;;;;;;2243713;62;2004;-87
2022/02/19 14:54:31;543560.00;1.81;936.86;0.00;0.00;0.62;;;;;11.80;1.00;;;;;;2244068;62;1480;-87
2022/02/19 14:57:06;433175.00;1.44;746.85;0.00;0.00;0.62;;;;;11.40;1.00;;;;;;2244074;62;1198;-88
2022/02/19 15:00:22;562248.00;1.87;969.08;18562.00;0.06;32.78;;;;;11.40;1.00;;;;;;2243899;62;1465;-88
2022/02/19 15:09:19;547227.00;1.82;943.18;0.00;0.00;0.62;;;;;12.10;1.00;;;;;;2240857;61;1924;-88
2022/02/19 15:12:08;233449.00;0.78;403.48;0.00;0.00;0.62;;;;;11.90;1.00;;;;;;2260415;61;1027;-87
2022/02/19 15:14:52;438535.00;1.46;756.06;0.00;0.00;0.62;;;;;11.70;1.00;;;;;;2260291;61;1408;-87
2022/02/19 15:17:43;570030.00;1.90;982.50;0.00;0.00;0.62;;;;;11.70;1.00;;;;;;2260249;61;1556;-87
2022/02/19 15:20:22;627756.00;2.09;1082.17;0.00;0.00;0.62;;;;;11.60;1.00;;;;;;2260238;61;1513;-87
2022/02/19 15:25:59;557728.00;1.86;961.28;89883.00;0.30;156.11;;;;;11.70;1.00;;;;;;2260307;61;1529;-87
2022/02/19 15:28:33;1839229.00;6.13;3299.27;229224.00;0.76;396.21;;;;;11.80;1.00;;;;;;2260076;61;1920;-87
2022/02/19 15:31:42;1313267.00;4.38;2296.41;148858.00;0.50;257.84;;;;;11.70;1.00;;;;;;2260070;61;1602;-87
2022/02/19 15:35:03;590636.00;1.97;1018.05;0.00;0.00;0.62;;;;;11.50;1.00;;;;;;2260193;61;1628;-88
2022/02/19 15:38:15;604455.00;2.01;1041.91;64576.00;0.22;112.39;;;;;11.40;1.00;;;;;;2258472;61;1612;-88
2022/02/19 15:41:21;830636.00;2.77;1434.61;110051.00;0.37;190.92;;;;;11.70;1.00;;;;;;2256536;61;1376;-87
2022/02/19 15:49:51;443902.00;1.48;765.29;5276.00;0.02;9.76;;;;;11.50;1.00;;;;;;2258244;61;1911;-87
2022/02/19 15:52:21;456347.00;1.52;786.70;42639.00;0.14;74.45;;;;;11.20;1.00;;;;;;2260149;61;1515;-88
2022/02/19 15:54:49;486798.00;1.62;839.10;0.00;0.00;0.62;;;;;11.20;1.00;;;;;;2260287;61;1024;-87
2022/02/19 15:57:21;914435.00;3.05;1581.49;0.00;0.00;0.62;;;;;11.40;1.00;;;;;;2260021;61;1647;-87
2022/02/19 15:59:54;772328.00;2.57;1332.91;0.00;0.00;0.62;;;;;11.40;1.00;;;;;;2260117;61;1449;-87
2022/02/19 16:02:21;590391.00;1.97;1017.63;0.00;0.00;0.62;;;;;11.40;1.00;;;;;;2260119;61;1360;-88
2022/02/19 16:04:48;442909.00;1.48;763.59;15447.00;0.05;27.38;;;;;11.00;1.00;;;;;;2260086;61;1724;-87
2022/02/19 16:07:22;354797.00;1.18;612.11;0.00;0.00;0.62;;;;;11.00;1.00;;;;;;2260153;61;1538;-87
2022/02/19 16:10:00;634416.00;2.11;1093.68;0.00;0.00;0.62;;;;;10.80;1.00;;;;;;2260067;61;2006;-86
2022/02/19 16:12:44;621365.00;2.07;1071.12;0.00;0.00;0.62;;;;;11.00;1.00;;;;;;2260156;61;922;-88
2022/02/19 16:15:13;626569.00;2.09;1080.12;33937.00;0.11;59.40;;;;;11.40;1.00;;;;;;2260042;61;1581;-88
2022/02/19 16:17:49;905842.00;3.02;1566.38;38615.00;0.13;67.49;;;;;11.10;1.00;;;;;;2259949;61;1188;-88
2022/02/19 16:20:23;126083392.00;420.28;81206064.00;0.00;0.00;0.62;;;;;11.20;1.00;;;;;;2260156;61;1586;-88
2022/02/19 16:22:50;707585.00;2.36;1220.39;0.00;0.00;0.62;;;;;11.40;1.00;;;;;;2260034;61;1557;-89
2022/02/19 16:28:11;492812.00;1.64;849.45;0.00;0.00;0.62;;;;;11.20;1.00;;;;;;2259931;61;1816;-87
2022/02/19 16:30:48;555057.00;1.85;956.68;0.00;0.00;0.62;;;;;11.20;1.00;;;;;;2256060;61;1487;-86
2022/02/19 16:33:31;;;;;;;;;;;;;;;;;;;;;
2022/02/19 16:36:04;437563.00;1.46;754.39;0.00;0.00;0.62;;;;;11.50;1.00;;;;;;2256104;61;1278;-86
2022/02/19 16:38:39;306113.00;1.02;528.43;0.00;0.00;0.62;;;;;11.60;1.00;;;;;;2256019;61;1601;-86
2022/02/19 16:41:11;688056.00;2.29;1186.53;15394.00;0.05;27.29;;;;;11.90;1.00;;;;;;2256038;61;1568;-86
2022/02/19 16:43:50;633577.00;2.11;1092.23;0.00;0.00;0.62;;;;;11.70;1.00;;;;;;2256091;61;1003;-86
2022/02/19 16:46:30;522010.00;1.74;899.73;0.00;0.00;0.62;;;;;11.60;1.00;;;;;;2256049;61;1545;-86
2022/02/19 16:49:31;531319.00;1.77;915.76;0.00;0.00;0.62;;;;;11.50;1.00;;;;;;2255830;61;2022;-86
2022/02/19 16:52:09;682155.00;2.27;1176.31;40008.00;0.13;69.90;;;;;11.70;1.00;;;;;;2255937;61;1452;-86
2022/02/19 16:54:38;446989.00;1.49;770.60;0.00;0.00;0.62;;;;;11.90;1.00;;;;;;2256045;61;1020;-86
2022/02/19 16:57:14;119521808.00;398.41;69165744.00;25398.00;0.08;44.62;;;;;11.80;1.00;;;;;;2255939;61;1605;-86
2022/02/19 17:00:00;374161.00;1.25;645.39;0.00;0.00;0.62;;;;;11.50;1.00;;;;;;2256047;61;1397;-86
2022/02/19 17:02:45;297037.00;0.99;512.83;0.00;0.00;0.62;;;;;11.40;1.00;;;;;;2256096;61;1003;-86
2022/02/19 17:08:00;469530.00;1.57;809.38;0.00;0.00;0.62;;;;;11.40;1.00;;;;;;2255813;61;1368;-86
2022/02/19 17:10:37;495870.00;1.65;854.71;0.00;0.00;0.62;;;;;11.30;1.00;;;;;;2256620;61;2015;-86
2022/02/19 17:13:30;980963.00;3.27;1698.78;110260.00;0.37;191.28;;;;;11.40;1.00;;;;;;2256719;61;1525;-86
2022/02/19 17:16:11;506241.00;1.69;872.57;41190.00;0.14;71.95;;;;;11.00;1.00;;;;;;2256586;61;1566;-86
2022/02/19 17:18:52;464729.00;1.55;801.12;41267.00;0.14;72.08;;;;;10.70;1.00;;;;;;2256441;61;2159;-86
2022/02/19 17:21:37;631393.00;2.10;1088.46;0.00;0.00;0.62;;;;;10.40;1.00;;;;;;2256681;61;1242;-86
2022/02/19 17:24:33;587036.00;1.96;1011.84;0.00;0.00;0.62;;;;;10.70;1.00;;;;;;2256620;61;1438;-86
2022/02/19 17:27:07;554980.00;1.85;956.54;0.00;0.00;0.62;;;;;10.50;1.00;;;;;;2256625;61;1527;-86
2022/02/19 17:29:50;534120.00;1.78;920.59;20743.00;0.07;36.56;;;;;10.80;1.00;;;;;;2256562;61;2012;-87
2022/02/19 17:32:23;658819.00;2.20;1135.90;95003.00;0.32;164.95;;;;;10.70;1.00;;;;;;2256586;61;1604;-86
2022/02/19 17:40:42;574194.00;1.91;989.68;85403.00;0.28;148.37;;;;;10.80;1.00;;;;;;2256460;61;1084;-86
2022/02/19 17:45:57;574338.00;1.91;989.93;85705.00;0.29;148.89;;;;;11.10;1.00;;;;;;2256680;61;1336;-87
2022/02/19 17:48:39;706072.00;2.35;1217.77;82052.00;0.27;142.58;;;;;11.70;1.00;;;;;;2256630;61;1444;-86
2022/02/19 17:53:57;368406.00;1.23;635.50;0.00;0.00;0.62;;;;;12.00;1.00;;;;;;2256912;61;1282;-85
2022/02/19 17:57:17;578102.00;1.93;996.42;0.00;0.00;0.62;;;;;12.30;1.00;;;;;;2256648;61;1594;-85
2022/02/19 17:59:46;985817.00;3.29;1707.37;85099.00;0.28;147.84;;;;;12.40;1.00;;;;;;2247989;61;1409;-86
2022/02/19 18:02:18;709207.00;2.36;1223.21;63791.00;0.21;111.03;;;;;11.60;1.00;;;;;;2256467;61;1630;-86
2022/02/19 18:04:49;562901.00;1.88;970.20;0.00;0.00;0.62;;;;;11.60;1.00;;;;;;2256559;61;1541;-86
2022/02/19 18:10:09;281636.00;0.94;486.35;0.00;0.00;0.62;;;;;11.70;1.00;;;;;;2256505;61;1919;-86
2022/02/19 18:13:01;614515.00;2.05;1059.29;0.00;0.00;0.62;;;;;11.70;1.00;;;;;;2256548;61;1356;-86
2022/02/19 18:15:41;523034.00;1.74;901.49;93888.00;0.31;163.02;;;;;11.30;1.00;;;;;;2256641;61;1242;-85
2022/02/19 18:18:10;792629.00;2.64;1368.27;98125.00;0.33;170.34;;;;;11.30;1.00;;;;;;2256404;61;1511;-86
2022/02/19 18:20:46;735544.00;2.45;1268.93;112638.00;0.38;195.38;;;;;11.10;1.00;;;;;;2256282;61;1504;-86
2022/02/19 18:23:33;848328.00;2.83;1465.54;92620.00;0.31;160.83;;;;;10.70;1.00;;;;;;2256532;61;1537;-85
2022/02/19 18:26:21;;;;;;;;;;;;;;;;;;;;;
2022/02/19 18:29:02;1936261.00;6.45;3494.26;179456.00;0.60;310.55;;;;;10.60;1.00;;;;;;2256071;61;1994;-84
2022/02/19 18:34:12;2351740.00;7.84;4373.36;175495.00;0.58;303.73;;;;;10.70;1.00;;;;;;2256268;61;994;-86
2022/02/19 18:36:41;1985689.00;6.62;3594.98;145878.00;0.49;252.70;;;;;10.90;1.00;;;;;;2256273;61;1436;-85
2022/02/19 18:39:09;1084183.00;3.61;1882.16;77594.00;0.26;134.88;;;;;11.00;1.00;;;;;;2256377;61;1282;-86
2022/02/19 18:41:44;1232908.00;4.11;2149.83;108166.00;0.36;187.67;;;;;11.10;1.00;;;;;;2256396;61;1036;-85
2022/02/19 18:44:21;1986810.00;6.62;3597.28;194692.00;0.65;336.79;;;;;11.40;1.00;;;;;;2256486;61;1437;-86
2022/02/19 18:46:50;1328029.00;4.43;2323.49;112423.00;0.37;195.01;;;;;11.40;1.00;;;;;;2256423;61;1487;-85
2022/02/19 18:49:20;648794.00;2.16;1118.55;78119.00;0.26;135.79;;;;;11.40;1.00;;;;;;2260974;61;2003;-86
2022/02/19 18:51:52;467032.00;1.56;805.08;0.00;0.00;0.62;;;;;11.50;1.00;;;;;;2264442;61;1344;-86
2022/02/19 18:54:21;565633.00;1.89;974.91;38455.00;0.13;67.22;;;;;11.20;1.00;;;;;;2264464;61;1611;-85
2022/02/19 18:56:52;503386.00;1.68;867.65;0.00;0.00;0.62;;;;;10.80;1.00;;;;;;2264461;61;995;-85
2022/02/19 18:59:21;609537.00;2.03;1050.69;0.00;0.00;0.62;;;;;10.60;1.00;;;;;;2264359;61;1591;-85
2022/02/19 19:02:09;533946.00;1.78;920.29;0.00;0.00;0.62;;;;;10.50;1.00;;;;;;2264421;61;1476;-85
2022/02/19 19:04:41;634768.00;2.12;1094.29;8735.00;0.03;15.76;;;;;10.60;1.00;;;;;;2244055;62;1176;-85
2022/02/19 19:07:12;757732.00;2.53;1307.50;15307.00;0.05;27.14;;;;;10.40;1.00;;;;;;2243984;62;1582;-86
2022/02/19 19:09:46;1022192.00;3.41;1771.82;88451.00;0.29;153.63;;;;;10.40;1.00;;;;;;2243983;62;2018;-84
2022/02/19 19:12:15;838555.00;2.80;1448.45;71808.00;0.24;124.88;;;;;10.00;1.00;;;;;;2244076;62;1053;-85
2022/02/19 19:14:51;1638863.00;5.46;2907.24;85965.00;0.29;149.34;;;;;10.10;1.00;;;;;;2244091;62;1164;-85
2022/02/19 19:17:37;2364585.00;7.88;4401.79;191018.00;0.64;330.46;;;;;10.30;1.00;;;;;;2243846;62;1468;-86
2022/02/19 19:20:25;2322834.00;7.74;4309.66;99747.00;0.33;173.14;;;;;10.50;1.00;;;;;;2243950;62;1394;-86
2022/02/19 19:23:34;;;;;;;;;;;;;;;;;;;;;
2022/02/19 19:26:27;2237391.00;7.46;4123.71;199953.00;0.67;345.84;;;;;10.10;1.00;;;;;;2244029;62;882;-86
2022/02/19 19:32:21;2190268.00;7.30;4022.61;334630.00;1.12;577.44;;;;;9.60;1.00;;;;;;2243748;62;1616;-85
2022/02/19 19:40:55;143462368.00;478.21;119673384.00;142651040.00;475.50;117652408.00;;;;;8.80;1.00;;;;;;2263959;61;1065;-87
2022/02/19 19:43:52;;;;;;;;;;;;;;;;;;;;;
2022/02/19 19:49:27;2483383.00;8.28;4668.72;132535.00;0.44;229.70;;;;;8.40;1.00;;;;;;2263474;61;1270;-86
2022/02/19 19:52:09;1735934.00;5.79;3095.46;127061.00;0.42;220.26;;;;;8.00;1.00;;;;;;2264246;61;1621;-86
2022/02/19 19:58:01;924277.00;3.08;1598.80;130304.00;0.43;225.85;;;;;8.10;1.00;;;;;;2262763;61;1765;-85
2022/02/19 20:00:39;1007640.00;3.36;1746.01;31457.00;0.10;55.10;;;;;8.30;1.00;;;;;;2260179;61;1326;-85
2022/02/19 20:03:23;1096849.00;3.66;1904.79;108485.00;0.36;188.22;;;;;8.90;1.00;;;;;;2259986;61;1538;-84
2022/02/19 20:06:21;;;;;;;;;;;;;;;;;;;;;
2022/02/19 20:09:03;726897.00;2.42;1253.91;0.00;0.00;0.62;;;;;9.70;1.00;;;;;;2260158;61;1367;-84
2022/02/19 20:14:43;729609.00;2.43;1258.62;0.00;0.00;0.62;;;;;10.10;1.00;;;;;;2258725;61;1117;-85
2022/02/19 20:17:22;505345.00;1.68;871.03;0.00;0.00;0.62;;;;;9.70;1.00;;;;;;2260063;61;1513;-86
2022/02/19 20:20:18;998856.00;3.33;1730.45;97965.00;0.33;170.06;;;;;9.30;1.00;;;;;;2260013;61;1475;-85
2022/02/19 20:26:07;656230.00;2.19;1131.42;0.00;0.00;0.62;;;;;9.70;1.00;;;;;;2239655;61;1498;-86
2022/02/19 20:28:54;665178.00;2.22;1146.90;0.00;0.00;0.62;;;;;9.60;1.00;;;;;;2227814;62;1399;-86
2022/02/19 20:31:31;785332.00;2.62;1355.55;0.00;0.00;0.62;;;;;9.40;1.00;;;;;;2247590;61;1928;-85
2022/02/19 20:34:06;695170.00;2.32;1198.86;27374.00;0.09;48.04;;;;;9.40;1.00;;;;;;2247588;61;1583;-85
2022/02/19 20:36:50;586013.00;1.95;1010.08;46027.00;0.15;80.31;;;;;9.50;1.00;;;;;;2247620;61;1585;-84
2022/02/19 20:42:21;845067.00;2.82;1459.84;75104.00;0.25;130.58;;;;;10.00;1.00;;;;;;2246429;61;1064;-87
2022/02/19 20:45:06;960447.00;3.20;1662.54;0.00;0.00;0.62;;;;;10.40;1.00;;;;;;2247635;61;1593;-85
2022/02/19 20:48:01;;;;;;;;;;;;;;;;;;;;;
2022/02/19 20:50:36;534224.00;1.78;920.77;0.00;0.00;0.62;;;;;10.20;1.00;;;;;;2247598;61;1999;-85
2022/02/19 20:56:54;1195871.00;3.99;2082.76;140853.00;0.47;244.04;;;;;9.00;1.00;;;;;;2247316;61;1399;-85
2022/02/19 20:59:45;;;;;;;;;;;;;;;;;;;;;